Time;durP1;ratioP1;P1;durP2;ratioP2;P2;SDS_P1;SDS_P2;PMS_P1;PMS_P2;Temp;Humidity;BMP_temperature;BMP_pressure;BME280_temperature;BME280_humidity;BME280_pressure;Samples;Min_cycle;Max_cycle;Signal;HPM_P1;HPM_P2
2023/01/22 00:00:32;;;;;;;1999.90;999.90;;;0.10;99.90;;;;;;5033048;28;20957;-66
2023/01/22 00:02:59;;;;;;;1999.90;999.90;;;0.10;99.90;;;;;;5047184;28;20448;-65
2023/01/22 00:05:26;;;;;;;1999.90;999.90;;;0.10;99.90;;;;;;5047587;28;20467;-66
2023/01/22 00:07:53;;;;;;;1999.90;999.90;;;0.10;99.90;;;;;;5046904;28;20451;-65
2023/01/22 00:10:20;;;;;;;1999.90;999.90;;;0.10;99.90;;;;;;5047317;28;20455;-65
2023/01/22 00:12:46;;;;;;;1999.90;999.90;;;0.10;99.90;;;;;;5046777;28;20448;-65
2023/01/22 00:15:13;;;;;;;1999.90;999.90;;;0.10;99.90;;;;;;5041388;28;20866;-65
2023/01/22 00:17:41;;;;;;;1999.90;999.90;;;0.10;99.90;;;;;;5046575;28;20472;-63
2023/01/22 00:20:11;;;;;;;1999.90;999.90;;;0.10;99.90;;;;;;5046830;28;20448;-66
2023/01/22 00:22:37;;;;;;;1999.90;999.90;;;0.10;99.90;;;;;;5047306;28;20452;-66
2023/01/22 00:25:06;;;;;;;1999.90;999.90;;;0.10;99.90;;;;;;5045333;28;20463;-66
2023/01/22 00:27:33;;;;;;;1999.90;999.90;;;0.10;99.90;;;;;;5047032;28;20448;-65
2023/01/22 00:29:59;;;;;;;1999.90;999.90;;;0.10;99.90;;;;;;5045507;28;20977;-65
2023/01/22 00:32:26;;;;;;;1999.90;999.90;;;0.10;99.90;;;;;;5046274;28;20462;-65
2023/01/22 00:34:54;;;;;;;1999.90;999.90;;;0.20;99.90;;;;;;5045866;28;20483;-65
2023/01/22 00:37:21;;;;;;;1999.90;999.90;;;0.20;99.90;;;;;;5046423;28;20595;-66
2023/01/22 00:39:48;;;;;;;1999.90;999.90;;;0.20;99.90;;;;;;5047023;28;20459;-65
2023/01/22 00:42:15;;;;;;;1999.90;999.90;;;0.20;99.90;;;;;;5046060;28;20466;-65
2023/01/22 00:44:41;;;;;;;1999.90;999.90;;;0.20;99.90;;;;;;5046591;28;20467;-64
2023/01/22 00:47:08;;;;;;;1999.90;999.90;;;0.20;99.90;;;;;;5045572;28;20475;-65
2023/01/22 00:49:35;;;;;;;1999.90;999.90;;;0.20;99.90;;;;;;5046474;28;20965;-67
2023/01/22 00:52:03;;;;;;;1999.90;999.90;;;0.30;99.90;;;;;;5046138;28;20452;-64
2023/01/22 00:54:30;;;;;;;1999.90;999.90;;;0.30;99.90;;;;;;5045758;28;20464;-64
2023/01/22 00:56:56;;;;;;;1999.90;999.90;;;0.30;99.90;;;;;;5046987;28;20444;-64
2023/01/22 00:59:23;;;;;;;1999.90;999.90;;;0.40;99.90;;;;;;5046187;28;20458;-66
2023/01/22 01:01:50;;;;;;;1999.90;999.90;;;0.40;99.90;;;;;;5046546;28;20467;-65
2023/01/22 01:04:17;;;;;;;1999.90;999.90;;;0.40;99.90;;;;;;5045641;28;20467;-65
2023/01/22 01:06:44;;;;;;;1999.90;999.90;;;0.40;99.90;;;;;;5046501;28;20440;-66
2023/01/22 01:09:12;;;;;;;1999.90;999.90;;;0.40;99.90;;;;;;5046332;28;20444;-65
2023/01/22 01:11:39;;;;;;;1999.90;999.90;;;0.30;99.90;;;;;;5046566;28;20455;-66
2023/01/22 01:14:05;;;;;;;1999.90;999.90;;;0.40;99.90;;;;;;5045867;28;20993;-65
2023/01/22 01:16:33;;;;;;;1999.90;999.90;;;0.50;99.90;;;;;;5046731;28;20448;-65
2023/01/22 01:19:00;;;;;;;1999.90;999.90;;;0.50;99.90;;;;;;5040984;28;20480;-65
2023/01/22 01:21:28;;;;;;;1999.90;999.90;;;0.50;99.90;;;;;;5027036;28;20934;-65
2023/01/22 01:23:55;;;;;;;1999.90;999.90;;;0.50;99.90;;;;;;5043919;28;20496;-65
2023/01/22 01:26:24;;;;;;;1999.90;999.90;;;0.50;99.90;;;;;;5044750;28;20487;-66
2023/01/22 01:28:52;;;;;;;1999.90;999.90;;;0.50;99.90;;;;;;5046070;28;20444;-65
2023/01/22 01:31:21;;;;;;;1999.90;999.90;;;0.50;99.90;;;;;;5046031;28;20452;-66
2023/01/22 01:33:48;;;;;;;1999.90;999.90;;;0.50;99.90;;;;;;5046123;28;20541;-65
2023/01/22 01:36:16;;;;;;;1999.90;999.90;;;0.50;99.90;;;;;;5037056;28;20469;-65
2023/01/22 01:38:43;;;;;;;1999.90;999.90;;;0.50;99.90;;;;;;5026133;28;20488;-65
2023/01/22 01:41:12;;;;;;;1999.90;999.90;;;0.50;99.90;;;;;;5026056;28;20821;-65
2023/01/22 01:43:41;;;;;;;1999.90;999.90;;;0.50;99.90;;;;;;5026002;28;20472;-64
2023/01/22 01:46:18;;;;;;;1999.90;999.90;;;0.40;99.90;;;;;;5026084;28;20449;-65
2023/01/22 01:48:47;;;;;;;1999.90;999.90;;;0.40;99.90;;;;;;5026485;28;20451;-66
2023/01/22 01:51:17;;;;;;;1999.90;999.90;;;0.40;99.90;;;;;;5036189;28;20463;-64
2023/01/22 01:53:46;;;;;;;1999.90;999.90;;;0.30;99.90;;;;;;5037992;28;20854;-65
2023/01/22 01:56:15;;;;;;;1999.90;999.90;;;0.30;99.90;;;;;;5044604;28;20447;-66
2023/01/22 01:58:45;;;;;;;1999.90;999.90;;;0.30;99.90;;;;;;5046203;28;20498;-65
2023/01/22 02:01:15;;;;;;;1999.90;999.90;;;0.30;99.90;;;;;;5044585;28;20456;-66
2023/01/22 02:03:42;;;;;;;1999.90;999.90;;;0.30;99.90;;;;;;5045660;28;20464;-66
2023/01/22 02:06:11;;;;;;;1999.90;999.90;;;0.30;99.90;;;;;;5046103;28;20451;-66
2023/01/22 02:08:38;;;;;;;1999.90;999.90;;;0.30;99.90;;;;;;5049967;28;20444;-66
2023/01/22 02:11:05;;;;;;;1999.90;999.90;;;0.40;99.90;;;;;;5049271;28;20451;-66
2023/01/22 02:13:35;;;;;;;1999.90;999.90;;;0.40;99.90;;;;;;5049396;28;20467;-65
2023/01/22 02:16:04;;;;;;;1999.90;999.90;;;0.50;99.90;;;;;;5033907;28;20445;-66
2023/01/22 02:18:31;;;;;;;1999.90;999.90;;;0.40;99.90;;;;;;5029472;28;20480;-66
2023/01/22 02:21:01;;;;;;;1999.90;999.90;;;0.50;99.90;;;;;;5029202;28;20456;-66
2023/01/22 02:23:30;;;;;;;1999.90;999.90;;;0.50;99.90;;;;;;5045352;28;20876;-67
2023/01/22 02:25:57;;;;;;;1999.90;999.90;;;0.50;99.90;;;;;;5049197;28;20447;-64
2023/01/22 02:28:24;;;;;;;1999.90;999.90;;;0.60;99.90;;;;;;5049664;28;20440;-66
2023/01/22 02:30:51;;;;;;;1999.90;999.90;;;0.70;99.90;;;;;;5048338;28;20444;-66
2023/01/22 02:33:18;;;;;;;1999.90;999.90;;;0.80;99.90;;;;;;5049153;28;20463;-66
2023/01/22 02:35:44;;;;;;;1999.90;999.90;;;0.80;99.90;;;;;;5049001;28;20860;-64
2023/01/22 02:38:13;;;;;;;1999.90;999.90;;;0.80;99.90;;;;;;5049223;28;20872;-65
2023/01/22 02:40:47;;;;;;;1999.90;999.90;;;0.90;99.90;;;;;;5049705;28;20506;-66
2023/01/22 02:43:15;;;;;;;1999.90;999.90;;;0.90;99.90;;;;;;5049852;28;20423;-65
2023/01/22 02:45:42;;;;;;;1999.90;999.90;;;0.90;99.90;;;;;;5054716;28;20991;-65
2023/01/22 02:48:08;;;;;;;1999.90;999.90;;;0.90;99.90;;;;;;5050905;28;20468;-65
2023/01/22 02:50:35;;;;;;;1999.90;999.90;;;0.90;99.90;;;;;;5043192;28;20448;-64
2023/01/22 02:53:02;;;;;;;1999.90;999.90;;;0.90;99.90;;;;;;5046631;28;20448;-66
2023/01/22 02:55:30;;;;;;;1999.90;999.90;;;0.90;99.90;;;;;;5049333;28;20455;-66
2023/01/22 02:57:57;;;;;;;1999.90;999.90;;;0.90;99.90;;;;;;5049323;28;20483;-65
2023/01/22 03:00:24;;;;;;;1999.90;999.90;;;0.90;99.90;;;;;;5050060;28;20455;-65
2023/01/22 03:02:50;;;;;;;1999.90;999.90;;;1.00;99.90;;;;;;5049530;28;20547;-65
2023/01/22 03:05:17;;;;;;;1999.90;999.90;;;1.00;99.90;;;;;;5047206;28;20484;-64
2023/01/22 03:07:44;;;;;;;1999.90;999.90;;;0.90;99.90;;;;;;5049484;28;20440;-65
2023/01/22 03:10:14;;;;;;;1999.90;999.90;;;1.00;99.90;;;;;;5048799;28;20448;-65
2023/01/22 03:21:15;;;;;;;1999.90;999.90;;;1.00;99.90;;;;;;5049341;28;20424;-65
2023/01/22 03:23:42;;;;;;;1999.90;999.90;;;1.00;99.90;;;;;;5048520;28;20521;-65
2023/01/22 03:26:09;;;;;;;1999.90;999.90;;;1.00;99.90;;;;;;5049185;28;20440;-65
2023/01/22 03:28:38;;;;;;;1999.90;999.90;;;1.10;99.90;;;;;;5049257;28;20448;-65
2023/01/22 03:31:05;;;;;;;1999.90;999.90;;;1.00;99.90;;;;;;5048964;28;20448;-65
2023/01/22 03:33:32;;;;;;;1999.90;999.90;;;1.10;99.90;;;;;;5047734;28;20483;-65
2023/01/22 03:36:02;;;;;;;1999.90;999.90;;;1.00;99.90;;;;;;5048715;28;20449;-65
2023/01/22 03:38:29;;;;;;;1999.90;999.90;;;1.00;99.90;;;;;;5049191;28;20486;-65
2023/01/22 03:41:03;;;;;;;1999.90;999.90;;;1.10;99.90;;;;;;5048497;28;20459;-65
2023/01/22 03:43:30;;;;;;;1999.90;999.90;;;1.00;99.90;;;;;;5048938;28;20835;-63
2023/01/22 03:46:02;;;;;;;1999.90;999.90;;;1.00;99.90;;;;;;5048495;28;20455;-65
2023/01/22 03:48:29;;;;;;;1999.90;999.90;;;1.00;99.90;;;;;;5049102;28;20447;-65
2023/01/22 03:50:56;;;;;;;1999.90;999.90;;;1.00;99.90;;;;;;5046447;28;20447;-65
2023/01/22 03:53:23;;;;;;;1999.90;999.90;;;1.00;99.90;;;;;;5048551;28;20471;-65
2023/01/22 03:55:57;;;;;;;1999.90;999.90;;;1.00;99.90;;;;;;5048642;28;20447;-63
2023/01/22 03:58:24;;;;;;;1999.90;999.90;;;1.00;99.90;;;;;;5048750;28;20541;-65
2023/01/22 04:00:50;;;;;;;1999.90;999.90;;;1.00;99.90;;;;;;5043324;28;20468;-65
2023/01/22 04:03:18;;;;;;;1999.90;999.90;;;1.00;99.90;;;;;;5038166;28;20460;-65
2023/01/22 04:05:45;;;;;;;1999.90;999.90;;;1.00;99.90;;;;;;5029877;28;20444;-66
2023/01/22 04:08:12;;;;;;;1999.90;999.90;;;1.10;99.90;;;;;;5029389;28;20458;-65
2023/01/22 04:10:39;;;;;;;1999.90;999.90;;;1.00;99.90;;;;;;5029363;28;20464;-65
2023/01/22 04:13:05;;;;;;;1999.90;999.90;;;1.00;99.90;;;;;;5029317;28;20449;-65
2023/01/22 04:15:32;;;;;;;1999.90;999.90;;;1.00;99.90;;;;;;5040347;28;20464;-65
2023/01/22 04:17:59;;;;;;;1999.90;999.90;;;1.00;99.90;;;;;;5049526;28;20792;-65
2023/01/22 04:20:27;;;;;;;1999.90;999.90;;;1.00;99.90;;;;;;5049570;28;20811;-65
2023/01/22 04:22:54;;;;;;;1999.90;999.90;;;1.10;99.90;;;;;;5049258;28;20822;-64
2023/01/22 04:25:20;;;;;;;1999.90;999.90;;;1.10;99.90;;;;;;5049221;28;20535;-65
2023/01/22 04:27:47;;;;;;;1999.90;999.90;;;1.10;99.90;;;;;;5038188;28;20460;-65
2023/01/22 04:30:15;;;;;;;1999.90;999.90;;;1.00;99.90;;;;;;5028625;28;20452;-65
2023/01/22 04:32:42;;;;;;;1999.90;999.90;;;1.00;99.90;;;;;;5028908;28;20485;-64
2023/01/22 04:35:09;;;;;;;1999.90;999.90;;;0.90;99.90;;;;;;5029404;28;20484;-65
2023/01/22 04:37:37;;;;;;;1999.90;999.90;;;0.90;99.90;;;;;;5029381;28;20834;-65
2023/01/22 04:40:05;;;;;;;1999.90;999.90;;;1.00;99.90;;;;;;5029321;28;20481;-65
2023/01/22 04:42:32;;;;;;;1999.90;999.90;;;1.10;99.90;;;;;;5043816;28;20551;-65
2023/01/22 04:44:59;;;;;;;1999.90;999.90;;;1.10;99.90;;;;;;5047022;28;20470;-65
2023/01/22 04:47:26;;;;;;;1999.90;999.90;;;1.10;99.90;;;;;;5048972;28;20964;-65
2023/01/22 04:49:53;;;;;;;1999.90;999.90;;;1.10;99.90;;;;;;5049091;28;20463;-64
2023/01/22 04:52:19;;;;;;;1999.90;999.90;;;1.10;99.90;;;;;;5049089;28;20440;-66
2023/01/22 04:54:48;;;;;;;1999.90;999.90;;;1.10;99.90;;;;;;5048735;28;20464;-66
2023/01/22 04:57:15;;;;;;;1999.90;999.90;;;1.20;99.90;;;;;;5047222;28;21012;-66
2023/01/22 04:59:42;;;;;;;1999.90;999.90;;;1.10;99.90;;;;;;5028631;28;21048;-66
2023/01/22 05:02:09;;;;;;;1999.90;999.90;;;1.10;99.90;;;;;;5029265;28;20456;-65
2023/01/22 05:04:35;;;;;;;1999.90;999.90;;;1.10;99.90;;;;;;5028877;28;20664;-66
2023/01/22 05:07:02;;;;;;;1999.90;999.90;;;1.00;99.90;;;;;;5029151;28;20460;-66
2023/01/22 05:09:29;;;;;;;1999.90;999.90;;;0.90;99.90;;;;;;5029362;28;20450;-65
2023/01/22 05:11:57;;;;;;;1999.90;999.90;;;0.80;99.90;;;;;;5029069;28;20455;-65
2023/01/22 05:14:24;;;;;;;1999.90;999.90;;;0.90;99.90;;;;;;5029883;28;20473;-66
2023/01/22 05:16:50;;;;;;;1999.90;999.90;;;0.70;99.90;;;;;;5028997;28;20448;-65
2023/01/22 05:19:17;;;;;;;1999.90;999.90;;;0.70;99.90;;;;;;5029294;28;20484;-65
2023/01/22 05:21:44;;;;;;;1999.90;999.90;;;0.80;99.90;;;;;;5028986;28;20961;-64
2023/01/22 05:24:11;;;;;;;1999.90;999.90;;;0.70;99.90;;;;;;5028490;28;20469;-66
2023/01/22 05:26:37;;;;;;;1999.90;999.90;;;0.70;99.90;;;;;;5028838;28;20449;-65
2023/01/22 05:29:06;;;;;;;1999.90;999.90;;;0.70;99.90;;;;;;5028944;28;20456;-64
2023/01/22 05:31:32;;;;;;;1999.90;999.90;;;0.70;99.90;;;;;;5030067;28;20545;-65
2023/01/22 05:33:59;;;;;;;1999.90;999.90;;;0.70;99.90;;;;;;5028355;28;20477;-65
2023/01/22 05:36:26;;;;;;;1999.90;999.90;;;0.80;99.90;;;;;;5043886;28;20451;-65
2023/01/22 05:38:53;;;;;;;1999.90;999.90;;;0.80;99.90;;;;;;5048570;28;20484;-66
2023/01/22 05:41:20;;;;;;;1999.90;999.90;;;0.80;99.90;;;;;;5049002;28;20451;-65
2023/01/22 05:43:46;;;;;;;1999.90;999.90;;;0.90;99.90;;;;;;5052344;28;20490;-65
2023/01/22 05:46:15;;;;;;;1999.90;999.90;;;0.80;99.90;;;;;;5052426;28;20663;-65
2023/01/22 05:48:41;;;;;;;1999.90;999.90;;;0.80;99.90;;;;;;5051842;28;20444;-65
2023/01/22 05:51:08;;;;;;;1999.90;999.90;;;0.90;99.90;;;;;;5052138;28;20448;-66
2023/01/22 05:53:35;;;;;;;1999.90;999.90;;;0.90;99.90;;;;;;5052116;28;20528;-65
2023/01/22 05:56:03;;;;;;;1999.90;999.90;;;1.00;99.90;;;;;;5052347;28;20448;-65
2023/01/22 05:58:30;;;;;;;1999.90;999.90;;;1.10;99.90;;;;;;5052074;28;20454;-66
2023/01/22 06:00:58;;;;;;;1999.90;999.90;;;1.10;99.90;;;;;;5042974;28;20437;-64
2023/01/22 06:03:26;;;;;;;1999.90;999.90;;;1.20;99.90;;;;;;5030469;28;20464;-66
2023/01/22 06:05:59;;;;;;;1999.90;999.90;;;1.10;99.90;;;;;;5031336;28;20445;-66
2023/01/22 06:08:26;;;;;;;1999.90;999.90;;;1.20;99.90;;;;;;5030858;28;20456;-65
2023/01/22 06:10:59;;;;;;;1999.90;999.90;;;1.10;99.90;;;;;;5031503;28;20449;-65
2023/01/22 06:13:26;;;;;;;1999.90;999.90;;;1.10;99.90;;;;;;5031565;28;20469;-65
2023/01/22 06:15:53;;;;;;;1999.90;999.90;;;1.10;99.90;;;;;;5045763;28;20471;-65
2023/01/22 06:18:20;;;;;;;1999.90;999.90;;;1.10;99.90;;;;;;5051748;28;20443;-65
2023/01/22 06:20:48;;;;;;;1999.90;999.90;;;1.10;99.90;;;;;;5051401;28;20490;-65
2023/01/22 06:23:15;;;;;;;1999.90;999.90;;;1.10;99.90;;;;;;5051635;28;20470;-65
2023/01/22 06:25:42;;;;;;;1999.90;999.90;;;1.20;99.90;;;;;;5051339;28;20450;-64
2023/01/22 06:28:09;;;;;;;1999.90;999.90;;;1.10;99.90;;;;;;5051670;28;20455;-65
2023/01/22 06:30:36;;;;;;;1999.90;999.90;;;1.20;99.90;;;;;;5050680;28;20439;-65
2023/01/22 06:33:03;;;;;;;1999.90;999.90;;;1.20;99.90;;;;;;5030945;28;20452;-65
2023/01/22 06:35:30;;;;;;;1999.90;999.90;;;1.10;99.90;;;;;;5031583;28;20452;-64
2023/01/22 06:37:58;;;;;;;1999.90;999.90;;;1.20;99.90;;;;;;5031539;28;20452;-64
2023/01/22 06:40:25;;;;;;;1999.90;999.90;;;1.10;99.90;;;;;;5031505;28;20491;-65
2023/01/22 06:42:52;;;;;;;1999.90;999.90;;;1.20;99.90;;;;;;5031072;28;20528;-64
2023/01/22 06:45:18;;;;;;;1999.90;999.90;;;1.20;99.90;;;;;;5031715;28;20473;-66
2023/01/22 06:47:45;;;;;;;1999.90;999.90;;;1.20;99.90;;;;;;5032478;28;20452;-65
2023/01/22 06:50:13;;;;;;;1999.90;999.90;;;1.20;99.90;;;;;;5031228;28;20445;-64
2023/01/22 06:52:40;;;;;;;1999.90;999.90;;;1.20;99.90;;;;;;5030316;28;20453;-65
2023/01/22 06:55:08;;;;;;;1999.90;999.90;;;1.20;99.90;;;;;;5030905;28;20869;-65
2023/01/22 06:57:35;;;;;;;1999.90;999.90;;;1.10;99.90;;;;;;5031465;28;20453;-65
2023/01/22 07:00:03;;;;;;;1999.90;999.90;;;1.20;99.90;;;;;;5031019;28;20829;-65
2023/01/22 07:02:30;;;;;;;1999.90;999.90;;;1.10;99.90;;;;;;5030954;28;20457;-65
2023/01/22 07:04:57;;;;;;;1999.90;999.90;;;1.10;99.90;;;;;;5031879;28;20475;-65
2023/01/22 07:07:24;;;;;;;1999.90;999.90;;;1.00;99.90;;;;;;5031396;28;20463;-64
2023/01/22 07:09:50;;;;;;;1999.90;999.90;;;1.10;99.90;;;;;;5031226;28;20448;-65
2023/01/22 07:12:18;;;;;;;1999.90;999.90;;;1.10;99.90;;;;;;5031127;28;20457;-66
2023/01/22 07:14:45;;;;;;;1999.90;999.90;;;1.10;99.90;;;;;;5030716;28;20476;-65
2023/01/22 07:17:12;;;;;;;1999.90;999.90;;;1.10;99.90;;;;;;5030707;28;20465;-65
2023/01/22 07:19:39;;;;;;;1999.90;999.90;;;1.10;99.90;;;;;;5031147;28;20854;-65
2023/01/22 07:22:05;;;;;;;1999.90;999.90;;;1.20;99.90;;;;;;5031860;28;20978;-66
2023/01/22 07:24:32;;;;;;;1999.90;999.90;;;1.20;99.90;;;;;;5030333;28;21069;-65
2023/01/22 07:27:00;;;;;;;1999.90;999.90;;;1.20;99.90;;;;;;5030373;28;20452;-65
2023/01/22 07:29:28;;;;;;;1999.90;999.90;;;1.30;99.90;;;;;;5030648;28;20483;-65
2023/01/22 07:31:55;;;;;;;1999.90;999.90;;;1.20;99.90;;;;;;5030564;28;20453;-65
2023/01/22 07:34:22;;;;;;;1999.90;999.90;;;1.30;99.90;;;;;;5054885;28;20471;-64
2023/01/22 07:36:49;;;;;;;1999.90;999.90;;;1.30;99.90;;;;;;5049810;28;20441;-66
2023/01/22 07:39:16;;;;;;;1999.90;999.90;;;1.30;99.90;;;;;;5035646;28;20480;-64
2023/01/22 07:41:43;;;;;;;1999.90;999.90;;;1.30;99.90;;;;;;5030771;28;20920;-65
2023/01/22 07:44:10;;;;;;;1999.90;999.90;;;1.30;99.90;;;;;;5036870;28;20468;-65
2023/01/22 07:46:38;;;;;;;1999.90;999.90;;;1.30;99.90;;;;;;5050138;28;20440;-64
2023/01/22 07:49:05;;;;;;;1999.90;999.90;;;1.30;99.90;;;;;;5050164;28;20452;-65
2023/01/22 07:51:32;;;;;;;1999.90;999.90;;;1.30;99.90;;;;;;5051331;28;20448;-64
2023/01/22 07:53:59;;;;;;;1999.90;999.90;;;1.40;99.90;;;;;;5049802;28;20847;-66
2023/01/22 07:56:26;;;;;;;1999.90;999.90;;;1.40;99.90;;;;;;5052616;28;20450;-67
2023/01/22 07:58:53;;;;;;;1999.90;999.90;;;1.30;99.90;;;;;;5049652;28;20448;-65
2023/01/22 08:01:19;;;;;;;1999.90;999.90;;;1.40;99.90;;;;;;5048738;28;20547;-64
2023/01/22 08:03:48;;;;;;;1999.90;999.90;;;1.40;99.90;;;;;;5049367;28;20490;-65
2023/01/22 08:06:19;;;;;;;1999.90;999.90;;;1.50;99.90;;;;;;5049663;28;20452;-65
2023/01/22 08:08:46;;;;;;;1999.90;999.90;;;1.60;99.90;;;;;;5049641;28;20483;-65
2023/01/22 08:11:13;;;;;;;1999.90;999.90;;;1.60;99.90;;;;;;5049567;28;20448;-65
2023/01/22 08:13:40;;;;;;;1999.90;999.90;;;1.60;99.90;;;;;;5049031;28;20505;-66
2023/01/22 08:16:08;;;;;;;1999.90;999.90;;;1.60;99.90;;;;;;5045762;28;20824;-66
2023/01/22 08:18:34;;;;;;;1999.90;999.90;;;1.60;99.90;;;;;;5049184;28;20448;-65
2023/01/22 08:21:03;;;;;;;1999.90;999.90;;;1.70;99.90;;;;;;5049367;28;20586;-65
2023/01/22 08:23:30;;;;;;;1999.90;999.90;;;1.60;99.90;;;;;;5048709;28;20564;-65
2023/01/22 08:25:59;;;;;;;1999.90;999.90;;;1.60;99.90;;;;;;5048432;28;20448;-65
2023/01/22 08:28:26;;;;;;;1999.90;999.90;;;1.60;99.90;;;;;;5049510;28;20440;-65
2023/01/22 08:30:57;;;;;;;1999.90;999.90;;;1.60;99.90;;;;;;5048953;28;20448;-65
2023/01/22 08:33:23;;;;;;;1999.90;999.90;;;1.60;99.90;;;;;;5048624;28;20487;-64
2023/01/22 08:35:50;;;;;;;1999.90;999.90;;;1.60;99.90;;;;;;5049163;28;20444;-65
2023/01/22 08:38:18;;;;;;;1999.90;999.90;;;1.50;99.90;;;;;;5049166;28;20448;-65
2023/01/22 08:40:48;;;;;;;1999.90;999.90;;;1.60;99.90;;;;;;5054028;28;20482;-65
2023/01/22 08:43:15;;;;;;;1999.90;999.90;;;1.50;99.90;;;;;;5048476;28;20456;-65
2023/01/22 08:45:42;;;;;;;1999.90;999.90;;;1.50;99.90;;;;;;5048259;28;20945;-69
2023/01/22 08:48:09;;;;;;;1999.90;999.90;;;1.60;99.90;;;;;;5047040;28;20453;-65
2023/01/22 08:50:36;;;;;;;1999.90;999.90;;;1.70;99.90;;;;;;5048679;28;20448;-66
2023/01/22 08:53:03;;;;;;;1999.90;999.90;;;1.70;99.90;;;;;;5048360;28;20977;-65
2023/01/22 08:55:31;;;;;;;1999.90;999.90;;;1.70;99.90;;;;;;5049121;28;20812;-64
2023/01/22 08:57:58;;;;;;;1999.90;999.90;;;1.80;99.90;;;;;;5049015;28;20447;-65
2023/01/22 09:00:26;;;;;;;1999.90;999.90;;;1.80;99.90;;;;;;5049024;28;20472;-65
2023/01/22 09:02:57;;;;;;;1999.90;999.90;;;1.90;99.90;;;;;;5039742;28;20453;-65
2023/01/22 09:05:24;;;;;;;1999.90;999.90;;;2.00;99.90;;;;;;5029020;28;20865;-66
2023/01/22 09:07:51;;;;;;;1999.90;999.90;;;1.90;99.90;;;;;;5028877;28;20448;-64
2023/01/22 09:10:18;;;;;;;1999.90;999.90;;;2.00;99.90;;;;;;5029405;28;20448;-66
2023/01/22 09:12:46;;;;;;;1999.90;999.90;;;2.00;99.90;;;;;;5028903;28;20954;-67
2023/01/22 09:15:14;;;;;;;1999.90;999.90;;;2.00;99.90;;;;;;5046349;28;20494;-67
2023/01/22 09:17:41;;;;;;;1999.90;999.90;;;1.90;99.90;;;;;;5052306;28;20705;-66
2023/01/22 09:20:09;;;;;;;1999.90;999.90;;;1.90;99.90;;;;;;5053112;28;20488;-67
2023/01/22 09:22:36;;;;;;;1999.90;999.90;;;1.90;99.90;;;;;;5056820;28;20944;-66
2023/01/22 09:25:03;;;;;;;1999.90;999.90;;;1.90;99.90;;;;;;5052919;28;20466;-66
2023/01/22 09:27:30;;;;;;;1999.90;999.90;;;1.90;99.90;;;;;;5052135;28;20933;-62
2023/01/22 09:29:59;;;;;;;1999.90;999.90;;;1.90;99.90;;;;;;5052828;28;20941;-66
2023/01/22 09:32:26;;;;;;;1999.90;999.90;;;2.00;99.90;;;;;;5052453;28;20497;-65
2023/01/22 09:34:53;;;;;;;1999.90;999.90;;;2.10;99.90;;;;;;5052444;28;20486;-65
2023/01/22 09:37:19;;;;;;;1999.90;999.90;;;2.00;99.90;;;;;;5052656;28;20440;-66
2023/01/22 09:39:49;;;;;;;1999.90;999.90;;;2.10;99.90;;;;;;5052749;28;20479;-66
2023/01/22 09:42:19;;;;;;;1999.90;999.90;;;2.10;99.90;;;;;;5052456;28;20474;-66
2023/01/22 09:44:51;;;;;;;1999.90;999.90;;;2.10;99.90;;;;;;5050560;28;20459;-66
2023/01/22 09:47:26;;;;;;;1999.90;999.90;;;2.20;99.90;;;;;;5052184;28;20829;-67
2023/01/22 09:49:56;;;;;;;1999.90;999.90;;;2.30;99.90;;;;;;5052276;28;20443;-66
2023/01/22 09:52:27;;;;;;;1999.90;999.90;;;2.40;99.90;;;;;;5052260;28;20550;-66
2023/01/22 09:54:54;;;;;;;1999.90;999.90;;;2.40;99.90;;;;;;5052257;28;20463;-66
2023/01/22 09:57:21;;;;;;;1999.90;999.90;;;2.60;99.90;;;;;;5052239;28;20957;-66
2023/01/22 09:59:50;;;;;;;1999.90;999.90;;;2.70;99.90;;;;;;5052389;28;20444;-66
2023/01/22 10:02:26;;;;;;;1999.90;999.90;;;2.70;99.90;;;;;;5045200;28;20451;-66
2023/01/22 10:04:57;;;;;;;1999.90;999.90;;;2.60;99.90;;;;;;5052340;28;20467;-66
2023/01/22 10:07:28;;;;;;;1999.90;999.90;;;2.50;99.90;;;;;;5052395;28;20451;-66
2023/01/22 10:10:01;;;;;;;1999.90;999.90;;;2.60;99.90;;;;;;5051926;28;20448;-67
2023/01/22 10:12:29;;;;;;;1999.90;999.90;;;2.70;99.90;;;;;;5052061;28;20451;-66
2023/01/22 10:14:56;;;;;;;1999.90;999.90;;;2.70;99.90;;;;;;5052033;28;20463;-67
2023/01/22 10:17:29;;;;;;;1999.90;999.90;;;2.80;99.90;;;;;;5032713;28;21428;-67
2023/01/22 10:20:00;;;;;;;1999.90;999.90;;;2.80;99.90;;;;;;5031894;28;20514;-66
2023/01/22 10:22:27;;;;;;;1999.90;999.90;;;2.70;99.90;;;;;;5031862;28;20837;-66
2023/01/22 10:24:55;;;;;;;1999.90;999.90;;;2.60;99.90;;;;;;5031477;28;20480;-66
2023/01/22 10:27:32;;;;;;;1999.90;999.90;;;2.50;99.90;;;;;;5031659;28;20921;-67
2023/01/22 10:30:02;;;;;;;1999.90;999.90;;;2.40;99.90;;;;;;5031961;28;20444;-66
2023/01/22 10:32:31;;;;;;;1999.90;999.90;;;2.20;99.90;;;;;;5036766;28;20456;-66
2023/01/22 10:35:04;;;;;;;1999.90;999.90;;;2.20;99.90;;;;;;5051197;28;20876;-67
2023/01/22 10:37:31;;;;;;;1999.90;999.90;;;2.20;99.90;;;;;;5051375;28;21212;-66
2023/01/22 10:39:59;;;;;;;1999.90;999.90;;;2.20;99.90;;;;;;5051731;28;20447;-66
2023/01/22 10:42:28;;;;;;;1999.90;999.90;;;2.20;99.90;;;;;;5053317;28;20475;-67
2023/01/22 10:44:56;;;;;;;1999.90;999.90;;;2.10;99.90;;;;;;5050404;28;20464;-65
2023/01/22 10:47:26;;;;;;;1999.90;999.90;;;2.00;99.90;;;;;;5046993;28;20833;-66
2023/01/22 10:50:05;;;;;;;1999.90;999.90;;;2.00;99.90;;;;;;5046164;28;20513;-66
2023/01/22 10:52:38;;;;;;;1999.90;999.90;;;2.10;99.90;;;;;;5051042;28;20793;-62
2023/01/22 10:55:07;;;;;;;1999.90;999.90;;;2.20;99.90;;;;;;5043429;28;20468;-67
2023/01/22 10:57:36;;;;;;;1999.90;999.90;;;2.30;99.90;;;;;;5042152;28;20484;-66
2023/01/22 11:00:19;;;;;;;1999.90;999.90;;;2.30;99.90;;;;;;5031434;28;20445;-65
2023/01/22 11:02:48;;;;;;;1999.90;999.90;;;2.50;99.90;;;;;;5035649;28;20444;-67
2023/01/22 11:05:18;;;;;;;1999.90;999.90;;;2.50;99.90;;;;;;5044283;28;20844;-66
2023/01/22 11:07:47;;;;;;;1999.90;999.90;;;2.50;99.90;;;;;;5041902;28;20463;-66
2023/01/22 11:10:22;;;;;;;1999.90;999.90;;;2.50;99.90;;;;;;5040893;28;21249;-65
2023/01/22 11:12:52;;;;;;;1999.90;999.90;;;2.50;99.90;;;;;;5038363;28;20513;-66
2023/01/22 11:15:24;;;;;;;1999.90;999.90;;;2.50;99.90;;;;;;5039478;28;20502;-66
2023/01/22 11:17:54;;;;;;;1999.90;999.90;;;2.60;99.90;;;;;;5038695;28;20982;-66
2023/01/22 11:20:24;;;;;;;1999.90;999.90;;;2.60;99.90;;;;;;5035241;28;20452;-66
2023/01/22 11:23:01;;;;;;;1999.90;999.90;;;2.60;99.90;;;;;;5039126;28;20455;-66
2023/01/22 11:25:37;;;;;;;1999.90;999.90;;;2.60;99.90;;;;;;5039319;28;20472;-66
2023/01/22 11:28:16;;;;;;;1999.90;999.90;;;2.60;99.90;;;;;;5038616;28;20459;-66
2023/01/22 11:31:03;;;;;;;1999.90;999.90;;;2.70;99.90;;;;;;5037407;28;20531;-66
2023/01/22 11:33:48;;;;;;;1999.90;999.90;;;2.70;99.90;;;;;;5034935;28;20480;-65
2023/01/22 11:36:21;;;;;;;1999.90;999.90;;;2.70;99.90;;;;;;5027706;28;20468;-66
2023/01/22 11:38:53;;;;;;;1999.90;999.90;;;2.70;99.90;;;;;;5026585;28;20449;-65
2023/01/22 11:41:44;;;;;;;1999.90;999.90;;;2.80;99.90;;;;;;5027522;28;20477;-64
2023/01/22 11:44:29;;;;;;;1999.90;999.90;;;2.80;99.90;;;;;;5044700;28;20532;-66
2023/01/22 11:47:12;;;;;;;1999.90;999.90;;;2.70;99.90;;;;;;5039159;28;20445;-66
2023/01/22 11:49:52;;;;;;;1999.90;999.90;;;2.90;99.90;;;;;;5026608;28;20437;-65
2023/01/22 11:52:32;;;;;;;1999.90;999.90;;;3.10;99.90;;;;;;5031375;28;20505;-66
2023/01/22 11:55:19;;;;;;;1999.90;999.90;;;3.10;99.90;;;;;;5038994;28;20464;-66
2023/01/22 11:57:52;;;;;;;1999.90;999.90;;;3.10;99.90;;;;;;5036699;28;20448;-67
2023/01/22 12:00:43;;;;;;;1999.90;999.90;;;3.00;99.90;;;;;;5038515;28;21104;-67
2023/01/22 12:03:54;;;;;;;1999.90;999.90;;;3.00;99.90;;;;;;5037518;28;20436;-66
2023/01/22 12:06:37;;;;;;;1999.90;999.90;;;3.00;99.90;;;;;;5038824;28;20813;-67
2023/01/22 12:09:12;;;;;;;1999.90;999.90;;;3.10;99.90;;;;;;5038731;28;20940;-67
2023/01/22 12:11:53;;;;;;;1999.90;999.90;;;3.10;99.90;;;;;;5032757;28;20436;-66
2023/01/22 12:14:39;;;;;;;1999.90;999.90;;;3.20;99.90;;;;;;5028768;28;20461;-67
2023/01/22 12:17:17;;;;;;;1999.90;999.90;;;3.10;99.90;;;;;;5037989;28;20467;-66
2023/01/22 12:20:12;;;;;;;1999.90;999.90;;;3.10;99.90;;;;;;5037084;28;20452;-67
2023/01/22 12:22:44;;;;;;;1999.90;999.90;;;3.20;99.90;;;;;;5040400;28;20484;-65
2023/01/22 12:25:19;;;;;;;1999.90;999.90;;;3.20;99.90;;;;;;5039715;28;20457;-67